createdAt,value
2017-11-27T00:00:43.645Z,32.50
2017-11-27T00:03:11.062Z,32.40
2017-11-27T00:05:38.497Z,32.60
2017-11-27T00:08:05.919Z,32.40
2017-11-27T00:10:33.352Z,32.20
2017-11-27T00:13:00.770Z,32.30
2017-11-27T00:15:28.210Z,32.00
2017-11-27T00:17:55.638Z,32.40
2017-11-27T00:20:23.071Z,32.30
2017-11-27T00:22:51.262Z,32.40
2017-11-27T00:25:18.694Z,32.40
2017-11-27T00:27:46.123Z,32.70
2017-11-27T00:30:13.570Z,32.70
2017-11-27T00:32:40.991Z,32.80
2017-11-27T00:35:08.410Z,33.00
2017-11-27T00:37:35.847Z,33.00
2017-11-27T00:40:03.271Z,33.10
2017-11-27T00:42:30.699Z,33.00
2017-11-27T00:44:58.129Z,32.90
2017-11-27T00:47:25.562Z,32.90
2017-11-27T00:49:52.980Z,33.00
2017-11-27T00:52:20.413Z,33.50
2017-11-27T00:54:47.841Z,33.70
2017-11-27T00:57:15.502Z,33.80
2017-11-27T00:59:42.912Z,33.70
2017-11-27T01:02:10.345Z,34.00
2017-11-27T01:04:37.766Z,33.90
2017-11-27T01:07:05.182Z,34.60
2017-11-27T01:09:32.610Z,34.10
2017-11-27T01:12:00.043Z,34.00
2017-11-27T01:14:27.476Z,34.10
2017-11-27T01:16:54.894Z,34.00
2017-11-27T01:19:22.330Z,34.10
2017-11-27T01:21:50.505Z,33.90
2017-11-27T01:24:17.940Z,33.90
2017-11-27T01:26:45.379Z,33.60
2017-11-27T01:29:12.802Z,33.70
2017-11-27T01:31:40.216Z,33.90
2017-11-27T01:34:08.418Z,33.40
2017-11-27T01:36:35.841Z,33.30
2017-11-27T01:39:03.289Z,33.30
2017-11-27T01:41:30.722Z,33.40
2017-11-27T01:43:58.146Z,33.70
2017-11-27T01:46:25.579Z,34.20
2017-11-27T01:48:53.764Z,33.50
2017-11-27T01:51:21.197Z,33.40
2017-11-27T01:53:48.649Z,33.80
2017-11-27T01:56:16.084Z,34.10
2017-11-27T01:58:43.510Z,34.50
2017-11-27T02:01:10.946Z,34.80
2017-11-27T02:03:38.366Z,35.10
2017-11-27T02:06:05.806Z,34.90
2017-11-27T02:08:33.227Z,35.00
2017-11-27T02:11:00.688Z,35.40
2017-11-27T02:13:28.102Z,35.40
2017-11-27T02:15:55.522Z,35.60
2017-11-27T02:18:22.954Z,35.70
2017-11-27T02:20:50.378Z,35.60
2017-11-27T02:23:17.810Z,35.80
2017-11-27T02:25:45.234Z,35.90
2017-11-27T02:28:12.667Z,36.00
2017-11-27T02:30:40.077Z,36.10
2017-11-27T02:33:07.507Z,36.00
2017-11-27T02:35:34.932Z,36.10
2017-11-27T02:38:02.418Z,36.10
2017-11-27T02:40:29.841Z,36.50
2017-11-27T02:42:57.264Z,36.50
2017-11-27T02:45:24.686Z,36.60
2017-11-27T02:47:52.106Z,37.10
2017-11-27T02:50:19.535Z,37.30
2017-11-27T02:52:46.960Z,38.00
2017-11-27T02:55:14.380Z,38.30
2017-11-27T02:57:41.812Z,38.20
2017-11-27T03:00:10.023Z,37.80
2017-11-27T03:02:37.446Z,37.70
2017-11-27T03:05:04.878Z,37.60
2017-11-27T03:07:32.312Z,37.30
2017-11-27T03:09:59.739Z,36.60
2017-11-27T03:12:27.198Z,36.50
2017-11-27T03:14:54.627Z,36.50
2017-11-27T03:17:22.050Z,36.80
2017-11-27T03:19:49.474Z,37.40
2017-11-27T03:22:16.914Z,38.30
2017-11-27T03:24:44.331Z,38.70
2017-11-27T03:27:11.761Z,38.80
2017-11-27T03:29:39.193Z,39.00
2017-11-27T03:32:06.620Z,39.00
2017-11-27T03:34:34.042Z,38.70
2017-11-27T03:37:01.474Z,38.90
2017-11-27T03:39:28.904Z,39.60
2017-11-27T03:41:56.342Z,40.40
2017-11-27T03:44:24.527Z,41.30
2017-11-27T03:46:51.953Z,41.20
2017-11-27T03:49:19.370Z,41.90
2017-11-27T03:51:46.811Z,42.50
2017-11-27T03:54:14.227Z,42.90
2017-11-27T03:56:42.443Z,43.30
2017-11-27T03:59:09.862Z,43.20
2017-11-27T04:01:37.278Z,43.40
2017-11-27T04:04:04.701Z,43.50
2017-11-27T04:06:32.117Z,43.50
2017-11-27T04:09:00.314Z,43.40
2017-11-27T04:11:27.725Z,43.40
2017-11-27T04:13:55.153Z,43.50
2017-11-27T04:16:22.583Z,43.40
2017-11-27T04:18:50.014Z,43.70
2017-11-27T04:21:18.199Z,44.20
2017-11-27T04:23:45.629Z,44.10
2017-11-27T04:26:13.049Z,44.80
2017-11-27T04:28:40.482Z,45.20
2017-11-27T04:31:07.910Z,45.40
2017-11-27T04:33:36.098Z,46.00
2017-11-27T04:36:03.534Z,46.00
2017-11-27T04:38:30.949Z,46.10
2017-11-27T04:40:58.698Z,46.00
2017-11-27T04:43:26.092Z,46.00
2017-11-27T04:45:53.517Z,46.00
2017-11-27T04:48:20.941Z,46.10
2017-11-27T04:50:48.410Z,46.00
2017-11-27T04:53:16.013Z,46.10
2017-11-27T04:55:43.434Z,46.40
2017-11-27T04:58:10.872Z,46.50
2017-11-27T05:00:38.289Z,46.50
2017-11-27T05:03:05.717Z,47.00
2017-11-27T05:05:33.139Z,47.30
2017-11-27T05:08:00.569Z,47.60
2017-11-27T05:10:27.991Z,47.50
2017-11-27T05:12:55.422Z,47.10
2017-11-27T05:15:22.847Z,46.90
2017-11-27T05:17:50.295Z,46.40
2017-11-27T05:20:17.715Z,46.20
2017-11-27T05:22:45.146Z,45.80
2017-11-27T05:25:12.574Z,45.70
2017-11-27T05:27:39.989Z,45.50
2017-11-27T05:30:07.422Z,45.30
2017-11-27T05:32:34.838Z,45.20
2017-11-27T05:35:02.274Z,44.70
2017-11-27T05:37:29.702Z,44.90
2017-11-27T05:39:57.131Z,44.90
2017-11-27T05:42:24.558Z,44.90
2017-11-27T05:44:51.986Z,44.90
2017-11-27T05:47:19.414Z,44.80
2017-11-27T05:49:46.861Z,44.90
2017-11-27T05:52:14.291Z,45.00
2017-11-27T05:54:41.709Z,45.20
2017-11-27T05:57:09.141Z,44.90
2017-11-27T05:59:36.549Z,44.80
2017-11-27T06:02:03.983Z,45.00
2017-11-27T06:04:31.415Z,44.90
2017-11-27T06:06:58.850Z,44.50
2017-11-27T06:09:26.270Z,44.30
2017-11-27T06:11:53.705Z,44.10
2017-11-27T06:14:21.123Z,43.90
2017-11-27T06:16:48.550Z,43.70
2017-11-27T06:19:15.974Z,43.30
2017-11-27T06:21:43.398Z,42.60
2017-11-27T06:24:10.817Z,42.80
2017-11-27T06:26:38.232Z,42.70
2017-11-27T06:29:05.738Z,43.10
2017-11-27T06:31:33.154Z,43.40
2017-11-27T06:34:00.582Z,43.60
2017-11-27T06:36:28.001Z,44.00
2017-11-27T06:38:55.434Z,44.00
2017-11-27T06:41:23.748Z,43.10
2017-11-27T06:43:51.178Z,43.10
2017-11-27T06:46:18.602Z,43.30
2017-11-27T06:48:46.035Z,43.20
2017-11-27T06:51:13.453Z,43.20
2017-11-27T06:53:40.890Z,43.50
2017-11-27T06:56:08.302Z,43.60
2017-11-27T06:58:35.722Z,43.90
2017-11-27T07:01:03.156Z,44.20
2017-11-27T07:03:30.580Z,44.50
2017-11-27T07:05:58.010Z,44.40
2017-11-27T07:08:25.435Z,44.50
2017-11-27T07:10:52.886Z,44.70
2017-11-27T07:13:21.338Z,44.80
2017-11-27T07:15:48.757Z,44.80
2017-11-27T07:18:16.182Z,44.80
2017-11-27T07:20:43.624Z,44.90
2017-11-27T07:23:11.807Z,45.20
2017-11-27T07:25:39.243Z,45.10
2017-11-27T07:28:06.676Z,45.30
2017-11-27T07:30:34.094Z,45.50
2017-11-27T07:33:01.533Z,45.80
2017-11-27T07:35:28.957Z,46.30
2017-11-27T07:38:02.105Z,46.60
2017-11-27T07:40:29.526Z,47.00
2017-11-27T07:42:56.954Z,47.20
2017-11-27T07:45:24.376Z,47.50
2017-11-27T07:47:51.806Z,47.80
2017-11-27T07:50:19.225Z,48.00
2017-11-27T07:52:46.665Z,48.00
2017-11-27T07:55:14.091Z,48.30
2017-11-27T07:57:41.531Z,48.30
2017-11-27T08:00:08.956Z,48.30
2017-11-27T08:02:36.380Z,48.10
2017-11-27T08:05:03.816Z,48.10
2017-11-27T08:07:31.229Z,48.20
2017-11-27T08:09:58.687Z,48.00
2017-11-27T08:12:26.105Z,47.70
2017-11-27T08:14:53.538Z,47.70
2017-11-27T08:17:20.963Z,47.70
2017-11-27T08:19:49.164Z,47.70
2017-11-27T08:22:16.584Z,47.70
2017-11-27T08:24:44.018Z,48.20
2017-11-27T08:27:11.455Z,48.50
2017-11-27T08:29:38.877Z,48.70
2017-11-27T08:32:06.303Z,48.30
2017-11-27T08:34:34.496Z,47.10
2017-11-27T08:37:01.923Z,47.00
2017-11-27T08:39:29.347Z,46.50
2017-11-27T08:41:56.779Z,46.30
2017-11-27T08:44:24.203Z,45.90
2017-11-27T08:46:52.401Z,46.00
2017-11-27T08:49:19.827Z,46.00
2017-11-27T08:51:47.278Z,46.00
2017-11-27T08:54:14.705Z,46.00
2017-11-27T08:56:42.122Z,46.00
2017-11-27T08:59:09.561Z,46.10
2017-11-27T09:01:37.736Z,46.20
2017-11-27T09:04:05.171Z,46.10
2017-11-27T09:06:32.584Z,45.80
2017-11-27T09:09:00.020Z,45.70
2017-11-27T09:11:28.259Z,45.70
2017-11-27T09:13:55.694Z,45.30
2017-11-27T09:16:23.112Z,45.50
2017-11-27T09:18:50.534Z,45.00
2017-11-27T09:21:17.965Z,45.00
2017-11-27T09:23:45.394Z,45.00
2017-11-27T09:26:12.814Z,44.90
2017-11-27T09:28:41.000Z,44.50
2017-11-27T09:31:08.423Z,44.50
2017-11-27T09:33:35.865Z,44.80
2017-11-27T09:36:03.293Z,44.80
2017-11-27T09:38:30.709Z,45.10
2017-11-27T09:40:58.145Z,45.10
2017-11-27T09:43:26.329Z,44.70
2017-11-27T09:45:53.772Z,44.30
2017-11-27T09:48:21.195Z,43.90
2017-11-27T09:50:48.626Z,44.40
2017-11-27T09:53:16.050Z,44.30
2017-11-27T09:55:44.251Z,44.80
2017-11-27T09:58:11.679Z,44.80
2017-11-27T10:00:39.113Z,44.80
2017-11-27T10:03:06.535Z,44.60
2017-11-27T10:05:33.976Z,44.80
2017-11-27T10:08:01.399Z,44.40
2017-11-27T10:10:29.599Z,44.50
2017-11-27T10:12:57.027Z,44.40
2017-11-27T10:15:24.450Z,44.10
2017-11-27T10:17:51.891Z,43.70
2017-11-27T10:20:19.318Z,43.70
2017-11-27T10:22:46.754Z,43.60
2017-11-27T10:25:14.939Z,43.40
2017-11-27T10:27:42.375Z,43.30
2017-11-27T10:30:09.798Z,43.50
2017-11-27T10:32:37.235Z,43.30
2017-11-27T10:35:04.658Z,43.40
2017-11-27T10:37:32.133Z,43.30
2017-11-27T10:39:59.535Z,43.20
2017-11-27T10:42:26.958Z,43.70
2017-11-27T10:44:54.385Z,44.00
2017-11-27T10:47:21.809Z,44.10
2017-11-27T10:49:49.251Z,44.00
2017-11-27T10:52:16.661Z,44.30
2017-11-27T10:54:44.105Z,44.50
2017-11-27T10:57:11.530Z,44.20
2017-11-27T10:59:38.954Z,44.10
2017-11-27T11:02:06.376Z,44.10
2017-11-27T11:04:33.813Z,44.50
2017-11-27T11:07:02.006Z,44.30
2017-11-27T11:09:29.450Z,44.20
2017-11-27T11:11:57.093Z,43.80
2017-11-27T11:14:24.518Z,44.30
2017-11-27T11:16:51.947Z,44.50
2017-11-27T11:19:19.370Z,44.50
2017-11-27T11:21:46.808Z,44.70
2017-11-27T11:24:14.226Z,45.40
2017-11-27T11:26:41.661Z,45.50
2017-11-27T11:29:09.085Z,45.90
2017-11-27T11:31:36.517Z,46.00
2017-11-27T11:34:03.944Z,46.10
2017-11-27T11:36:31.377Z,46.70
2017-11-27T11:38:58.802Z,46.40
2017-11-27T11:41:26.240Z,46.00
2017-11-27T11:43:53.659Z,45.70
2017-11-27T11:46:21.106Z,44.60
2017-11-27T11:48:48.531Z,44.60
2017-11-27T11:51:15.972Z,43.80
2017-11-27T11:53:43.402Z,44.40
2017-11-27T11:56:10.829Z,44.40
2017-11-27T11:58:38.268Z,44.10
2017-11-27T12:01:06.457Z,43.30
2017-11-27T12:03:33.895Z,43.20
2017-11-27T12:06:01.319Z,42.80
2017-11-27T12:08:28.758Z,41.30
2017-11-27T12:10:56.195Z,41.10
2017-11-27T12:13:23.650Z,41.30
2017-11-27T12:15:51.076Z,40.70
2017-11-27T12:18:18.514Z,39.50
2017-11-27T12:20:46.719Z,38.80
2017-11-27T12:23:14.134Z,38.80
2017-11-27T12:25:41.564Z,38.80
2017-11-27T12:28:08.991Z,38.20
2017-11-27T12:30:36.417Z,37.40
2017-11-27T12:33:03.847Z,37.60
2017-11-27T12:35:31.287Z,37.70
2017-11-27T12:37:58.731Z,38.00
2017-11-27T12:40:26.169Z,37.80
2017-11-27T12:42:53.599Z,38.10
2017-11-27T12:45:21.793Z,38.50
2017-11-27T12:47:49.222Z,38.40
2017-11-27T12:50:17.429Z,37.40
2017-11-27T12:52:44.845Z,37.40
2017-11-27T12:55:13.046Z,38.30
2017-11-27T12:57:40.466Z,37.80
2017-11-27T13:00:07.904Z,38.20
2017-11-27T13:02:35.339Z,38.10
2017-11-27T13:05:02.759Z,38.30
2017-11-27T13:07:30.198Z,37.70
2017-11-27T13:09:57.624Z,37.40
2017-11-27T13:12:25.059Z,37.90
2017-11-27T13:14:52.477Z,38.20
2017-11-27T13:17:20.701Z,38.70
2017-11-27T13:19:48.105Z,38.80
2017-11-27T13:22:15.542Z,38.60
2017-11-27T13:24:42.969Z,38.30
2017-11-27T13:27:10.620Z,37.90
2017-11-27T13:29:38.030Z,38.00
2017-11-27T13:32:06.225Z,37.80
2017-11-27T13:34:33.658Z,37.70
2017-11-27T13:37:01.084Z,37.50
2017-11-27T13:39:28.518Z,37.60
2017-11-27T13:41:55.942Z,37.30
2017-11-27T13:44:23.382Z,37.60
2017-11-27T13:46:51.573Z,38.10
2017-11-27T13:49:19.015Z,38.00
2017-11-27T13:51:46.439Z,37.70
2017-11-27T13:54:13.878Z,38.10
2017-11-27T13:56:41.302Z,38.50
2017-11-27T13:59:08.808Z,38.50
2017-11-27T14:01:36.214Z,38.50
2017-11-27T14:04:03.650Z,39.00
2017-11-27T14:06:31.847Z,39.10
2017-11-27T14:08:59.298Z,39.00
2017-11-27T14:11:26.726Z,39.00
2017-11-27T14:13:54.154Z,39.10
2017-11-27T14:16:21.598Z,38.80
2017-11-27T14:18:49.015Z,39.00
2017-11-27T14:21:16.450Z,39.20
2017-11-27T14:23:44.646Z,39.00
2017-11-27T14:26:12.080Z,38.90
2017-11-27T14:28:39.509Z,38.90
2017-11-27T14:31:06.946Z,39.00
2017-11-27T14:33:34.396Z,39.00
2017-11-27T14:36:01.835Z,39.30
2017-11-27T14:38:29.263Z,39.00
2017-11-27T14:40:57.461Z,38.80
2017-11-27T14:43:24.887Z,38.80
2017-11-27T14:45:52.327Z,39.00
2017-11-27T14:48:19.743Z,38.70
2017-11-27T14:50:47.189Z,38.60
2017-11-27T14:53:14.605Z,38.60
2017-11-27T14:55:42.047Z,37.90
2017-11-27T14:58:09.474Z,37.70
2017-11-27T15:00:36.923Z,37.70
2017-11-27T15:03:04.347Z,37.70
2017-11-27T15:05:31.769Z,37.30
2017-11-27T15:07:59.211Z,37.10
2017-11-27T15:10:26.635Z,36.80
2017-11-27T15:12:54.074Z,36.50
2017-11-27T15:15:21.494Z,36.60
2017-11-27T15:17:48.942Z,36.60
2017-11-27T15:20:16.374Z,36.70
2017-11-27T15:22:43.818Z,36.60
2017-11-27T15:25:11.230Z,37.10
2017-11-27T15:27:39.440Z,37.10
2017-11-27T15:30:06.862Z,36.60
2017-11-27T15:32:35.077Z,36.70
2017-11-27T15:35:02.503Z,36.70
2017-11-27T15:37:29.942Z,36.40
2017-11-27T15:39:57.375Z,36.90
2017-11-27T15:42:24.795Z,37.00
2017-11-27T15:44:52.238Z,37.00
2017-11-27T15:47:19.671Z,36.70
2017-11-27T15:49:47.125Z,36.50
2017-11-27T15:52:14.557Z,36.30
2017-11-27T15:54:41.990Z,36.80
2017-11-27T15:57:09.419Z,36.60
2017-11-27T15:59:36.854Z,36.70
2017-11-27T16:02:05.050Z,36.80
2017-11-27T16:04:32.482Z,36.80
2017-11-27T16:06:59.918Z,37.10
2017-11-27T16:09:27.358Z,37.40
2017-11-27T16:11:54.790Z,36.90
2017-11-27T16:14:22.219Z,36.90
2017-11-27T16:16:49.662Z,37.30
2017-11-27T16:19:17.844Z,37.00
2017-11-27T16:21:46.091Z,37.20
2017-11-27T16:24:13.513Z,37.20
2017-11-27T16:26:40.955Z,37.00
2017-11-27T16:29:08.391Z,37.20
2017-11-27T16:31:35.827Z,36.80
2017-11-27T16:34:03.248Z,36.70
2017-11-27T16:36:30.680Z,36.30
2017-11-27T16:38:58.120Z,36.40
2017-11-27T16:41:25.539Z,35.70
2017-11-27T16:43:53.313Z,36.30
2017-11-27T16:46:20.743Z,36.40
2017-11-27T16:48:48.188Z,36.80
2017-11-27T16:51:15.627Z,37.00
2017-11-27T16:53:43.057Z,36.70
2017-11-27T16:56:11.240Z,37.20
2017-11-27T16:58:38.683Z,37.00
2017-11-27T17:01:06.106Z,36.90
2017-11-27T17:03:34.271Z,37.30
2017-11-27T17:06:01.736Z,37.80
2017-11-27T17:08:29.209Z,38.20
2017-11-27T17:10:56.687Z,38.00
2017-11-27T17:13:24.151Z,37.70
2017-11-27T17:15:51.609Z,37.50
2017-11-27T17:18:19.109Z,37.70
2017-11-27T17:20:46.591Z,37.60
2017-11-27T17:23:14.041Z,37.30
2017-11-27T17:25:41.523Z,37.70
2017-11-27T17:28:09.787Z,37.70
2017-11-27T17:30:37.257Z,37.80
2017-11-27T17:33:04.707Z,37.50
2017-11-27T17:35:32.207Z,37.40
2017-11-27T17:37:59.675Z,37.70
2017-11-27T17:40:27.147Z,37.70
2017-11-27T17:42:54.590Z,38.00
2017-11-27T17:45:22.080Z,38.20
2017-11-27T17:47:49.524Z,37.50
2017-11-27T17:50:17.050Z,38.10
2017-11-27T17:52:44.508Z,38.30
2017-11-27T17:55:11.970Z,38.10
2017-11-27T17:57:39.454Z,37.90
2017-11-27T18:00:06.921Z,38.00
2017-11-27T18:02:34.385Z,37.90
2017-11-27T18:05:01.951Z,38.00
2017-11-27T18:07:29.456Z,38.10
2017-11-27T18:09:56.907Z,37.70
2017-11-27T18:12:24.379Z,37.40
2017-11-27T18:14:51.819Z,37.10
2017-11-27T18:17:19.313Z,37.10
2017-11-27T18:19:46.725Z,37.70
2017-11-27T18:22:14.162Z,38.10
2017-11-27T18:24:41.696Z,38.10
2017-11-27T18:27:09.893Z,39.10
2017-11-27T18:29:37.317Z,38.40
2017-11-27T18:32:04.747Z,38.90
2017-11-27T18:34:32.187Z,39.20
2017-11-27T18:36:59.609Z,39.70
2017-11-27T18:39:27.042Z,40.00
2017-11-27T18:41:55.238Z,40.40
2017-11-27T18:44:22.682Z,40.30
2017-11-27T18:46:50.996Z,39.90
2017-11-27T18:49:19.177Z,39.90
2017-11-27T18:51:46.597Z,39.80
2017-11-27T18:54:14.044Z,39.70
2017-11-27T18:56:41.483Z,39.50
2017-11-27T18:59:08.928Z,38.60
2017-11-27T19:01:36.361Z,39.30
2017-11-27T19:04:03.795Z,40.60
2017-11-27T19:06:31.235Z,40.60
2017-11-27T19:08:59.654Z,40.50
2017-11-27T19:11:27.699Z,41.90
2017-11-27T19:13:55.169Z,41.20
2017-11-27T19:16:22.689Z,41.60
2017-11-27T19:18:50.123Z,41.30
2017-11-27T19:21:17.559Z,41.50
2017-11-27T19:23:44.979Z,42.00
2017-11-27T19:26:12.422Z,41.80
2017-11-27T19:28:39.842Z,41.00
2017-11-27T19:31:07.269Z,41.30
2017-11-27T19:33:34.714Z,41.20
2017-11-27T19:36:02.167Z,41.70
2017-11-27T19:38:29.610Z,42.00
2017-11-27T19:40:57.054Z,41.80
2017-11-27T19:43:24.503Z,41.90
2017-11-27T19:45:52.372Z,41.90
2017-11-27T19:48:19.790Z,41.90
2017-11-27T19:50:47.217Z,41.30
2017-11-27T19:53:14.650Z,41.60
2017-11-27T19:55:42.072Z,41.70
2017-11-27T19:58:09.536Z,41.80
2017-11-27T20:00:36.965Z,42.50
2017-11-27T20:03:04.390Z,42.20
2017-11-27T20:05:31.826Z,42.20
2017-11-27T20:07:59.251Z,42.10
2017-11-27T20:10:26.689Z,42.40
2017-11-27T20:12:54.119Z,42.40
2017-11-27T20:15:21.557Z,41.80
2017-11-27T20:17:48.988Z,42.00
2017-11-27T20:20:17.201Z,42.70
2017-11-27T20:22:45.312Z,42.60
2017-11-27T20:25:13.348Z,41.80
2017-11-27T20:27:40.768Z,42.50
2017-11-27T20:30:08.257Z,42.20
2017-11-27T20:32:35.666Z,42.30
2017-11-27T20:35:03.101Z,42.00
2017-11-27T20:37:30.525Z,42.10
2017-11-27T20:39:57.982Z,41.50
2017-11-27T20:42:25.418Z,42.30
2017-11-27T20:44:52.847Z,42.80
2017-11-27T20:47:21.064Z,42.40
2017-11-27T20:49:48.488Z,42.40
2017-11-27T20:52:15.925Z,42.30
2017-11-27T20:54:43.354Z,42.70
2017-11-27T20:57:10.785Z,42.90
2017-11-27T20:59:38.214Z,43.40
2017-11-27T21:02:05.679Z,43.40
2017-11-27T21:04:33.845Z,43.40
2017-11-27T21:07:01.291Z,43.30
2017-11-27T21:09:28.711Z,43.40
2017-11-27T21:11:56.527Z,43.40
2017-11-27T21:14:23.937Z,43.40
2017-11-27T21:16:51.370Z,43.30
2017-11-27T21:19:18.881Z,42.50
2017-11-27T21:21:46.302Z,42.50
2017-11-27T21:24:13.742Z,42.40
2017-11-27T21:26:41.161Z,41.90
2017-11-27T21:29:08.603Z,42.40
2017-11-27T21:31:36.785Z,42.70
2017-11-27T21:34:04.222Z,42.70
2017-11-27T21:36:31.650Z,42.70
2017-11-27T21:38:59.081Z,43.00
2017-11-27T21:41:27.318Z,43.20
2017-11-27T21:43:54.758Z,43.20
2017-11-27T21:46:22.190Z,43.40
2017-11-27T21:48:49.621Z,43.30
2017-11-27T21:51:17.041Z,42.60
2017-11-27T21:53:44.483Z,42.60
2017-11-27T21:56:11.903Z,42.40
2017-11-27T21:58:39.333Z,42.50
2017-11-27T22:01:06.756Z,41.60
2017-11-27T22:03:34.955Z,41.60
2017-11-27T22:06:02.390Z,41.50
2017-11-27T22:08:29.814Z,41.90
2017-11-27T22:10:57.240Z,41.60
2017-11-27T22:13:25.438Z,41.30
2017-11-27T22:15:52.869Z,41.30
2017-11-27T22:18:20.293Z,40.70
2017-11-27T22:20:47.730Z,40.60
2017-11-27T22:23:15.159Z,40.70
2017-11-27T22:25:42.585Z,40.70
2017-11-27T22:28:10.011Z,40.50
2017-11-27T22:30:38.217Z,40.50
2017-11-27T22:33:05.639Z,40.40
2017-11-27T22:35:34.101Z,40.50
2017-11-27T22:38:01.522Z,40.60
2017-11-27T22:40:28.958Z,40.00
2017-11-27T22:42:56.401Z,39.80
2017-11-27T22:45:23.821Z,39.50
2017-11-27T22:47:51.266Z,39.70
2017-11-27T22:50:18.695Z,40.00
2017-11-27T22:52:46.134Z,39.60
2017-11-27T22:55:13.557Z,38.70
2017-11-27T22:57:41.763Z,39.50
2017-11-27T23:00:09.188Z,39.50
2017-11-27T23:02:36.646Z,39.80
2017-11-27T23:05:04.852Z,39.40
2017-11-27T23:07:32.273Z,39.40
2017-11-27T23:09:59.718Z,39.20
2017-11-27T23:12:27.154Z,38.90
2017-11-27T23:14:55.350Z,38.70
2017-11-27T23:17:23.541Z,39.00
2017-11-27T23:19:50.965Z,38.90
2017-11-27T23:22:18.398Z,39.20
2017-11-27T23:24:46.710Z,39.20
2017-11-27T23:27:14.901Z,39.00
2017-11-27T23:29:42.342Z,39.00
2017-11-27T23:32:09.774Z,39.20
2017-11-27T23:34:37.218Z,39.00
2017-11-27T23:37:04.689Z,39.20
2017-11-27T23:39:32.519Z,38.80
2017-11-27T23:41:59.944Z,39.20
2017-11-27T23:44:27.383Z,39.10
2017-11-27T23:46:54.819Z,39.70
2017-11-27T23:49:22.248Z,40.30
2017-11-27T23:51:49.683Z,40.10
2017-11-27T23:54:17.110Z,40.20
2017-11-27T23:56:45.317Z,40.50
2017-11-27T23:59:13.520Z,40.00
